Pagrindinis puslapis
METAR-TAF:

METAR-TAF

Oro uostai :

Rijadas, Saudo Arabija

platuma: 24-43N, ilguma: 046-44E, Aukštis: 635 m

Dabartinis oras

Ataskaita buvo paskelbta 45 minutes, ne 11:00 UTC
Vėjas 6 kt iš Rytų/Pietryčių
Temperatūra 35°C
Drėgmė 19%
Slėgis 1017 hPa
Matomumas 10 km arba daugiau
Mažai debesys ne aukštis 4000 ft

METAR: OERY 141100Z 12006KT 9999 FEW040 35/08 Q1017

Laikas: 14:45 (11:45 UTC)

Prognozė

Ataskaita buvo paskelbta 45 minutes, ne 11:00 UTC
Prognozė galioja nuo 14 metu 12 UTC su 15 metu 18 UTC
Vėjas 10 kt iš Rytų/Šiaurės Rytų
Matomumas 10 km arba daugiau
Mažai debesys ne aukštis 4000 ft
Tapsmas
nuo 14 metu 18 UTC su 14 metu 20 UTC
Vėjas 3 kt nuo kintamojo kryptimis

TAF: OERY 141100Z 1412/1518 07010KT 9999 FEW040 BECMG 1418/1420 VRB03KT

Orai ataskaitas ir orų prognozės (METAR, TAF).

turimą stotys yra geltonos ir raudonos taškus žemėlapyje.

Perkelti pele per norėdami pamatyti stoties vardą.

Tada spustelėkite, norėdami matyti oro stebėjimo ir prognozės.

Norėdami pakeisti žemėlapį: spustelėkite ant žalios mygtukų su juodo kryžiaus žemyn,; žalią mygtuką su brūkšneliu, jei norite nutolinti; arba žalių rodyklių gretimoms žemėlapius.


METAR-TAF: